Tererro, New Mexico
Current Conditions -  °F | °C
As of 12:53 PM on Thursday 29 Jan 2015 (Local Time) from KSAF Reporting Station
Scattered Clouds Scattered Clouds  
Wind Chill: 41°   Ceiling: Unl
Heat Index: 48°   Visibility: 10mi
Dew Point: 24°   Wind: 18mph
Humidity: 39%   Direction: 130°SE
Pressure: 30.41"   Gusts: 25mph
Location:  35.76°N, 105.67°W
Report Text: KSAF 291953Z 13016G22KT 10SM FEW070 SCT120 09/M04 A3041 RMK AO2 SLP268 T00891044
Loading
Personal Weather Stations






























Interactive Weather Map New forecast layout! Learn more

10-Day Weather Forecast

Advertisements
Track Severe Weather on mobile